createdAt,value
2023-11-20T00:00:14.933Z,14.45
2023-11-20T00:02:43.927Z,13.00
2023-11-20T00:05:13.056Z,12.68
2023-11-20T00:07:41.939Z,11.65
2023-11-20T00:10:12.004Z,11.65
2023-11-20T00:12:40.243Z,15.63
2023-11-20T00:15:09.764Z,7.00
2023-11-20T00:17:38.278Z,12.25
2023-11-20T00:20:07.819Z,16.00
2023-11-20T00:22:36.186Z,11.98
2023-11-20T00:25:05.144Z,8.60
2023-11-20T00:27:34.626Z,11.20
2023-11-20T00:30:03.413Z,8.77
2023-11-20T00:32:31.725Z,13.60
2023-11-20T00:35:00.095Z,11.68
2023-11-20T00:37:28.658Z,13.30
2023-11-20T00:39:57.346Z,8.40
2023-11-20T00:42:25.533Z,12.07
2023-11-20T00:44:55.655Z,10.77
2023-11-20T00:47:24.293Z,11.55
2023-11-20T00:49:52.761Z,11.90
2023-11-20T00:52:21.828Z,19.20
2023-11-20T00:54:49.732Z,7.78
2023-11-20T00:57:17.694Z,12.57
2023-11-20T00:59:47.356Z,8.35
2023-11-20T01:02:16.744Z,9.65
2023-11-20T01:04:44.778Z,13.93
2023-11-20T01:07:13.177Z,11.52
2023-11-20T01:09:43.103Z,11.57
2023-11-20T01:12:11.419Z,10.00
2023-11-20T01:14:40.015Z,12.63
2023-11-20T01:17:08.454Z,10.15
2023-11-20T01:19:38.849Z,16.20
2023-11-20T01:22:06.899Z,10.07
2023-11-20T01:24:35.504Z,13.75
2023-11-20T01:27:03.938Z,12.55
2023-11-20T01:29:33.677Z,10.10
2023-11-20T01:32:04.066Z,14.07
2023-11-20T01:34:33.553Z,13.80
2023-11-20T01:37:03.562Z,18.65
2023-11-20T01:39:32.541Z,12.05
2023-11-20T01:42:00.579Z,12.15
2023-11-20T01:44:28.737Z,9.70
2023-11-20T01:46:56.872Z,10.55
2023-11-20T01:49:25.475Z,12.48
2023-11-20T01:51:54.499Z,14.15
2023-11-20T01:54:25.340Z,13.77
2023-11-20T01:56:53.879Z,9.30
2023-11-20T01:59:23.143Z,15.23
2023-11-20T02:01:51.385Z,11.30
2023-11-20T02:04:22.656Z,11.23
2023-11-20T02:06:51.678Z,10.73
2023-11-20T02:09:20.129Z,11.43
2023-11-20T02:11:51.502Z,10.23
2023-11-20T02:14:20.452Z,11.90
2023-11-20T02:16:48.633Z,12.75
2023-11-20T02:19:17.147Z,13.02
2023-11-20T02:21:47.137Z,8.27
2023-11-20T02:24:16.124Z,8.88
2023-11-20T02:27:10.332Z,11.38
2023-11-20T02:29:57.866Z,10.35
2023-11-20T02:32:29.602Z,14.75
2023-11-20T02:34:57.873Z,7.80
2023-11-20T02:37:28.546Z,15.43
2023-11-20T02:39:56.895Z,8.75
2023-11-20T02:42:25.352Z,12.70
2023-11-20T02:44:53.669Z,13.05
2023-11-20T02:47:23.994Z,10.63
2023-11-20T02:49:52.219Z,11.02
2023-11-20T02:52:20.501Z,12.82
2023-11-20T02:54:48.745Z,15.93
2023-11-20T02:57:17.621Z,16.10
2023-11-20T02:59:45.568Z,11.05
2023-11-20T03:02:15.500Z,12.23
2023-11-20T03:04:46.207Z,11.98
2023-11-20T03:07:15.645Z,12.93
2023-11-20T03:09:44.108Z,12.73
2023-11-20T03:12:13.989Z,14.00
2023-11-20T03:14:41.954Z,16.88
2023-11-20T03:17:10.171Z,8.52
2023-11-20T03:19:38.532Z,11.70
2023-11-20T03:22:08.282Z,15.20
2023-11-20T03:24:36.634Z,9.20
2023-11-20T03:27:05.059Z,11.40
2023-11-20T03:29:33.032Z,11.43
2023-11-20T03:32:01.124Z,11.95
2023-11-20T03:34:29.246Z,7.38
2023-11-20T03:36:57.733Z,14.70
2023-11-20T03:39:29.131Z,6.97
2023-11-20T03:41:57.315Z,13.43
2023-11-20T03:44:25.477Z,10.85
2023-11-20T03:46:53.687Z,10.85
2023-11-20T03:49:22.204Z,8.48
2023-11-20T03:51:53.644Z,7.80
2023-11-20T03:54:22.020Z,7.13
2023-11-20T03:56:51.957Z,13.70
2023-11-20T03:59:20.023Z,11.98
2023-11-20T04:01:47.955Z,6.15
2023-11-20T04:04:16.267Z,10.43
2023-11-20T04:06:44.327Z,10.07
2023-11-20T04:09:12.584Z,9.48
2023-11-20T04:11:42.091Z,5.18
2023-11-20T04:14:12.653Z,12.95
2023-11-20T04:16:40.646Z,8.07
2023-11-20T04:19:10.404Z,10.15
2023-11-20T04:21:38.629Z,12.43
2023-11-20T04:24:10.345Z,7.85
2023-11-20T04:26:38.296Z,10.18
2023-11-20T04:29:06.434Z,8.70
2023-11-20T04:31:35.923Z,7.57
2023-11-20T04:34:04.469Z,12.52
2023-11-20T04:36:32.768Z,8.50
2023-11-20T04:39:01.704Z,8.18
2023-11-20T04:41:30.113Z,7.05
2023-11-20T04:44:01.562Z,9.73
2023-11-20T04:46:30.070Z,8.82
2023-11-20T04:48:59.546Z,10.25
2023-11-20T04:51:27.652Z,12.18
2023-11-20T04:53:56.096Z,12.10
2023-11-20T04:56:24.840Z,15.63
2023-11-20T04:58:52.931Z,10.15
2023-11-20T05:01:22.437Z,10.45
2023-11-20T05:03:51.678Z,9.43
2023-11-20T05:06:21.056Z,16.27
2023-11-20T05:08:50.632Z,11.38
2023-11-20T05:11:18.772Z,10.20
2023-11-20T05:13:47.073Z,18.42
2023-11-20T05:16:16.906Z,9.27
2023-11-20T05:18:45.059Z,8.00
2023-11-20T05:21:13.058Z,11.10
2023-11-20T05:23:42.294Z,9.63
2023-11-20T05:26:10.491Z,10.95
2023-11-20T05:28:38.488Z,11.48
2023-11-20T05:31:06.556Z,11.20
2023-11-20T05:33:34.898Z,9.88
2023-11-20T05:36:02.848Z,11.40
2023-11-20T05:38:30.887Z,11.77
2023-11-20T05:41:00.174Z,10.85
2023-11-20T05:43:28.083Z,14.20
2023-11-20T05:45:56.080Z,8.68
2023-11-20T05:48:24.029Z,8.23
2023-11-20T05:50:52.311Z,8.98
2023-11-20T05:53:20.302Z,9.23
2023-11-20T05:55:48.547Z,9.38
2023-11-20T05:58:18.023Z,8.88
2023-11-20T06:00:48.068Z,8.38
2023-11-20T06:03:16.807Z,7.07
2023-11-20T06:05:46.804Z,5.65
2023-11-20T06:08:15.441Z,15.57
2023-11-20T06:10:43.460Z,4.32
2023-11-20T06:13:12.189Z,8.23
2023-11-20T06:15:42.131Z,8.38
2023-11-20T06:18:10.107Z,7.20
2023-11-20T06:20:38.008Z,8.93
2023-11-20T06:23:06.060Z,6.70
2023-11-20T06:25:33.980Z,10.40
2023-11-20T06:28:02.908Z,5.90
2023-11-20T06:30:32.450Z,6.93
2023-11-20T06:33:02.747Z,9.07
2023-11-20T06:35:30.924Z,8.43
2023-11-20T06:37:59.206Z,7.95
2023-11-20T06:40:27.245Z,4.65
2023-11-20T06:42:56.136Z,7.95
2023-11-20T06:45:24.137Z,10.95
2023-11-20T06:47:53.076Z,7.45
2023-11-20T06:50:26.318Z,8.23
2023-11-20T06:52:54.520Z,8.65
2023-11-20T06:55:23.491Z,7.35
2023-11-20T06:57:53.151Z,8.38
2023-11-20T07:00:21.537Z,8.45
2023-11-20T07:02:50.391Z,5.78
2023-11-20T07:05:19.093Z,10.57
2023-11-20T07:07:54.914Z,6.18
2023-11-20T07:10:26.402Z,6.80
2023-11-20T07:12:56.026Z,7.93
2023-11-20T07:15:24.371Z,8.63
2023-11-20T07:17:52.947Z,8.88
2023-11-20T07:20:21.531Z,7.68
2023-11-20T07:22:51.617Z,6.78
2023-11-20T07:25:19.894Z,4.70
2023-11-20T07:27:50.069Z,8.27
2023-11-20T07:30:20.974Z,9.15
2023-11-20T07:32:49.542Z,7.65
2023-11-20T07:35:18.098Z,5.95
2023-11-20T07:37:46.189Z,9.98
2023-11-20T07:40:17.210Z,5.65
2023-11-20T07:42:45.546Z,10.57
2023-11-20T07:45:14.471Z,5.18
2023-11-20T07:47:42.550Z,6.47
2023-11-20T07:50:12.267Z,3.45
2023-11-20T07:52:40.421Z,6.10
2023-11-20T07:55:09.315Z,6.85
2023-11-20T07:57:39.120Z,2.88
2023-11-20T08:00:13.340Z,6.28
2023-11-20T08:02:41.751Z,9.75
2023-11-20T08:05:10.890Z,6.30
2023-11-20T08:07:39.647Z,7.03
2023-11-20T08:10:10.867Z,6.10
2023-11-20T08:12:40.715Z,8.13
2023-11-20T08:15:13.611Z,5.43
2023-11-20T08:20:11.035Z,12.63
2023-11-20T08:22:39.718Z,8.18
2023-11-20T08:25:08.727Z,6.03
2023-11-20T08:27:40.497Z,9.75
2023-11-20T08:30:13.291Z,8.02
2023-11-20T08:32:41.546Z,6.07
2023-11-20T08:35:10.460Z,4.07
2023-11-20T08:37:38.649Z,5.35
2023-11-20T08:40:10.549Z,3.92
2023-11-20T08:42:39.142Z,5.23
2023-11-20T08:45:10.131Z,6.65
2023-11-20T08:47:41.206Z,5.28
2023-11-20T08:50:11.174Z,4.20
2023-11-20T08:52:40.740Z,9.80
2023-11-20T08:55:09.743Z,5.18
2023-11-20T08:57:38.152Z,6.28
2023-11-20T09:00:13.129Z,5.03
2023-11-20T09:02:43.477Z,3.40
2023-11-20T09:05:14.236Z,2.22
2023-11-20T09:07:42.787Z,4.63
2023-11-20T09:10:13.572Z,3.47
2023-11-20T09:12:44.135Z,6.28
2023-11-20T09:15:13.082Z,5.35
2023-11-20T09:17:43.744Z,2.53
2023-11-20T09:20:13.638Z,4.03
2023-11-20T09:22:41.847Z,11.20
2023-11-20T09:25:10.570Z,3.22
2023-11-20T09:27:38.852Z,4.60
2023-11-20T09:30:08.224Z,6.20
2023-11-20T09:32:37.025Z,5.95
2023-11-20T09:35:11.439Z,5.30
2023-11-20T09:37:47.510Z,5.88
2023-11-20T09:40:16.322Z,7.63
2023-11-20T09:42:46.307Z,6.07
2023-11-20T09:45:28.701Z,4.32
2023-11-20T09:47:57.449Z,4.50
2023-11-20T09:50:29.912Z,4.00
2023-11-20T09:52:58.872Z,3.95
2023-11-20T09:55:27.976Z,5.25
2023-11-20T09:57:56.113Z,2.85
2023-11-20T10:00:25.975Z,3.80
2023-11-20T10:02:54.890Z,5.15
2023-11-20T10:05:34.498Z,3.33
2023-11-20T10:08:04.826Z,4.72
2023-11-20T10:10:34.847Z,6.07
2023-11-20T10:13:09.458Z,6.38
2023-11-20T10:15:37.994Z,7.90
2023-11-20T10:18:06.937Z,5.47
2023-11-20T10:20:50.213Z,5.63
2023-11-20T10:25:47.099Z,5.25
2023-11-20T10:28:16.473Z,7.05
2023-11-20T10:30:46.343Z,4.88
2023-11-20T10:33:19.646Z,5.35
2023-11-20T10:38:17.182Z,7.60
2023-11-20T10:40:46.495Z,5.22
2023-11-20T10:43:14.551Z,7.13
2023-11-20T10:45:43.299Z,10.90
2023-11-20T10:48:12.488Z,6.03
2023-11-20T10:50:42.209Z,6.22
2023-11-20T10:53:11.996Z,2.45
2023-11-20T10:55:43.768Z,4.22
2023-11-20T10:58:13.308Z,6.35
2023-11-20T11:00:43.157Z,6.20
2023-11-20T11:03:17.587Z,3.88
2023-11-20T11:05:50.009Z,1.85
2023-11-20T11:08:22.185Z,7.00
2023-11-20T11:10:51.172Z,4.73
2023-11-20T11:13:22.365Z,7.18
2023-11-20T11:15:51.823Z,4.57
2023-11-20T11:18:29.846Z,2.53
2023-11-20T11:20:59.530Z,3.45
2023-11-20T11:23:33.508Z,5.18
2023-11-20T11:26:14.525Z,2.88
2023-11-20T11:28:48.788Z,6.68
2023-11-20T11:31:19.043Z,4.90
2023-11-20T11:34:07.768Z,3.15
2023-11-20T11:36:47.568Z,3.38
2023-11-20T11:39:23.763Z,2.50
2023-11-20T11:42:03.213Z,3.28
2023-11-20T11:44:54.512Z,4.50
2023-11-20T11:47:23.558Z,2.13
2023-11-20T11:49:51.719Z,5.00
2023-11-20T11:52:29.063Z,3.83
2023-11-20T11:55:26.831Z,6.38
2023-11-20T11:57:59.977Z,4.55
2023-11-20T12:00:29.255Z,4.25
2023-11-20T12:03:02.653Z,2.33
2023-11-20T12:05:34.445Z,5.50
2023-11-20T12:08:05.766Z,3.90
2023-11-20T12:10:51.582Z,2.92
2023-11-20T12:13:20.908Z,4.30
2023-11-20T12:15:50.339Z,3.53
2023-11-20T12:18:22.370Z,6.32
2023-11-20T12:21:08.582Z,6.78
2023-11-20T12:23:37.971Z,5.80
2023-11-20T12:26:11.104Z,5.13
2023-11-20T12:28:41.425Z,6.50
2023-11-20T12:31:11.837Z,5.22
2023-11-20T12:33:43.019Z,7.05
2023-11-20T12:36:13.027Z,3.65
2023-11-20T12:38:44.326Z,3.95
2023-11-20T12:41:14.355Z,4.72
2023-11-20T12:43:42.448Z,6.97
2023-11-20T12:46:17.366Z,3.38
2023-11-20T12:48:46.831Z,6.05
2023-11-20T12:51:15.579Z,4.97
2023-11-20T12:53:44.358Z,4.60
2023-11-20T12:56:15.549Z,2.95
2023-11-20T12:58:46.370Z,3.13
2023-11-20T13:01:15.004Z,4.35
2023-11-20T13:03:43.530Z,4.95
2023-11-20T13:06:12.501Z,2.75
2023-11-20T13:08:41.273Z,4.57
2023-11-20T13:11:13.922Z,4.30
2023-11-20T13:13:44.337Z,4.70
2023-11-20T13:16:17.600Z,3.35
2023-11-20T13:18:51.372Z,2.92
2023-11-20T13:21:23.894Z,3.85
2023-11-20T13:24:02.328Z,3.03
2023-11-20T13:26:31.280Z,4.53
2023-11-20T13:29:01.193Z,3.58
2023-11-20T13:31:36.625Z,2.42
2023-11-20T13:34:08.455Z,4.97
2023-11-20T13:36:39.510Z,6.80
2023-11-20T13:39:11.903Z,2.65
2023-11-20T13:41:40.271Z,5.13
2023-11-20T13:44:10.907Z,6.50
2023-11-20T13:46:42.992Z,4.68
2023-11-20T13:49:11.762Z,3.70
2023-11-20T13:51:40.057Z,2.17
2023-11-20T13:54:10.899Z,2.17
2023-11-20T13:56:39.391Z,4.90
2023-11-20T13:59:10.026Z,4.43
2023-11-20T14:01:40.220Z,5.25
2023-11-20T14:04:11.299Z,5.35
2023-11-20T14:06:40.526Z,4.05
2023-11-20T14:09:08.837Z,4.45
2023-11-20T14:11:37.367Z,3.58
2023-11-20T14:14:07.663Z,4.72
2023-11-20T14:16:38.157Z,6.40
2023-11-20T14:19:06.474Z,4.22
2023-11-20T14:21:35.285Z,6.20
2023-11-20T14:24:03.368Z,2.55
2023-11-20T14:26:34.939Z,6.47
2023-11-20T14:29:04.205Z,3.50
2023-11-20T14:31:34.523Z,3.33
2023-11-20T14:34:04.697Z,4.82
2023-11-20T14:36:33.977Z,9.40
2023-11-20T14:39:02.042Z,7.13
2023-11-20T14:41:30.349Z,3.38
2023-11-20T14:43:58.633Z,6.88
2023-11-20T14:46:27.176Z,5.18
2023-11-20T14:48:55.641Z,2.95
2023-11-20T14:51:25.436Z,3.42
2023-11-20T14:53:54.109Z,5.55
2023-11-20T14:56:22.574Z,2.00
2023-11-20T14:58:53.202Z,2.63
2023-11-20T15:01:22.486Z,6.35
2023-11-20T15:03:50.590Z,5.40
2023-11-20T15:06:19.196Z,6.85
2023-11-20T15:08:48.905Z,2.90
2023-11-20T15:11:16.977Z,4.90
2023-11-20T15:13:45.280Z,4.82
2023-11-20T15:16:13.842Z,5.03
2023-11-20T15:18:42.046Z,4.55
2023-11-20T15:21:09.969Z,4.68
2023-11-20T15:23:37.919Z,2.67
2023-11-20T15:26:08.099Z,4.10
2023-11-20T15:28:36.107Z,7.57
2023-11-20T15:31:04.570Z,5.75
2023-11-20T15:33:32.705Z,4.47
2023-11-20T15:36:00.718Z,6.75
2023-11-20T15:38:28.875Z,5.22
2023-11-20T15:40:56.988Z,4.50
2023-11-20T15:43:26.786Z,7.18
2023-11-20T15:45:57.298Z,7.60
2023-11-20T15:48:25.447Z,7.03
2023-11-20T15:50:54.663Z,7.65
2023-11-20T15:53:23.461Z,5.63
2023-11-20T15:55:52.126Z,6.80
2023-11-20T15:58:20.270Z,4.45
2023-11-20T16:00:49.827Z,2.60
2023-11-20T16:03:19.785Z,7.90
2023-11-20T16:05:48.370Z,7.35
2023-11-20T16:08:16.539Z,4.63
2023-11-20T16:10:44.762Z,5.43
2023-11-20T16:13:13.265Z,6.18
2023-11-20T16:15:45.956Z,5.90
2023-11-20T16:18:16.908Z,6.75
2023-11-20T16:20:46.637Z,4.63
2023-11-20T16:23:15.372Z,5.60
2023-11-20T16:25:47.952Z,6.43
2023-11-20T16:28:16.935Z,7.32
2023-11-20T16:30:45.870Z,9.25
2023-11-20T16:33:15.664Z,3.40
2023-11-20T16:35:43.963Z,3.80
2023-11-20T16:38:11.938Z,4.78
2023-11-20T16:40:40.090Z,7.30
2023-11-20T16:43:08.189Z,3.92
2023-11-20T16:45:36.799Z,5.68
2023-11-20T16:48:05.395Z,4.22
2023-11-20T16:50:35.154Z,4.30
2023-11-20T16:53:03.765Z,8.82
2023-11-20T16:55:32.329Z,3.75
2023-11-20T16:58:00.652Z,6.70
2023-11-20T17:00:28.985Z,4.65
2023-11-20T17:02:57.701Z,5.95
2023-11-20T17:05:26.101Z,7.47
2023-11-20T17:07:55.485Z,4.65
2023-11-20T17:10:24.544Z,4.10
2023-11-20T17:12:52.777Z,5.28
2023-11-20T17:15:21.964Z,5.57
2023-11-20T17:17:50.123Z,3.45
2023-11-20T17:20:19.255Z,5.20
2023-11-20T17:22:47.751Z,4.05
2023-11-20T17:25:17.757Z,4.75
2023-11-20T17:27:45.957Z,2.97
2023-11-20T17:30:16.688Z,2.50
2023-11-20T17:32:44.868Z,5.90
2023-11-20T17:35:14.403Z,4.30
2023-11-20T17:37:42.359Z,2.60
2023-11-20T17:40:15.356Z,3.03
2023-11-20T17:45:15.158Z,5.85
2023-11-20T17:47:44.330Z,5.85
2023-11-20T17:50:13.020Z,3.55
2023-11-20T17:52:41.840Z,5.10
2023-11-20T17:55:10.801Z,7.57
2023-11-20T17:57:40.209Z,7.38
2023-11-20T18:00:14.470Z,4.05
2023-11-20T18:02:43.646Z,7.53
2023-11-20T18:05:12.762Z,4.38
2023-11-20T18:07:41.305Z,4.88
2023-11-20T18:10:12.668Z,2.70
2023-11-20T18:12:41.958Z,4.82
2023-11-20T18:15:12.928Z,2.72
2023-11-20T18:17:43.316Z,1.67
2023-11-20T18:20:13.604Z,3.17
2023-11-20T18:22:43.746Z,8.13
2023-11-20T18:25:13.156Z,3.08
2023-11-20T18:27:42.028Z,6.07
2023-11-20T18:30:13.719Z,4.35
2023-11-20T18:32:42.608Z,5.65
2023-11-20T18:35:11.291Z,4.90
2023-11-20T18:37:43.564Z,6.80
2023-11-20T18:40:15.014Z,6.65
2023-11-20T18:42:46.073Z,10.40
2023-11-20T18:45:17.670Z,5.47
2023-11-20T18:47:47.732Z,4.97
2023-11-20T18:50:18.168Z,6.22
2023-11-20T18:52:46.531Z,4.68
2023-11-20T18:55:14.774Z,8.63
2023-11-20T18:57:45.591Z,12.07
2023-11-20T19:00:17.762Z,13.65
2023-11-20T19:02:46.987Z,12.85
2023-11-20T19:05:15.551Z,11.13
2023-11-20T19:07:44.610Z,9.38
2023-11-20T19:10:13.414Z,6.13
2023-11-20T19:12:42.802Z,10.55
2023-11-20T19:15:12.026Z,14.40
2023-11-20T19:17:42.530Z,10.20
2023-11-20T19:20:14.543Z,6.07
2023-11-20T19:22:43.326Z,7.60
2023-11-20T19:25:15.883Z,7.57
2023-11-20T19:27:44.197Z,8.23
2023-11-20T19:30:17.855Z,7.15
2023-11-20T19:32:49.000Z,10.00
2023-11-20T19:35:18.717Z,8.85
2023-11-20T19:37:48.361Z,10.60
2023-11-20T19:40:17.998Z,10.70
2023-11-20T19:42:46.261Z,14.07
2023-11-20T19:45:17.231Z,10.05
2023-11-20T19:47:45.521Z,10.85
2023-11-20T19:50:14.885Z,12.38
2023-11-20T19:52:43.682Z,12.50
2023-11-20T19:55:12.177Z,14.23
2023-11-20T19:57:41.058Z,13.75
2023-11-20T20:00:13.475Z,13.68
2023-11-20T20:02:44.463Z,10.68
2023-11-20T20:05:18.361Z,10.38
2023-11-20T20:07:47.035Z,9.00
2023-11-20T20:10:16.239Z,12.35
2023-11-20T20:12:44.685Z,13.00
2023-11-20T20:15:13.012Z,9.23
2023-11-20T20:17:41.953Z,11.43
2023-11-20T20:20:13.123Z,7.18
2023-11-20T20:22:42.752Z,8.30
2023-11-20T20:25:14.468Z,9.25
2023-11-20T20:27:43.318Z,11.55
2023-11-20T20:30:12.935Z,7.25
2023-11-20T20:32:43.635Z,7.72
2023-11-20T20:35:13.161Z,4.90
2023-11-20T20:37:42.579Z,9.25
2023-11-20T20:40:13.158Z,7.57
2023-11-20T20:42:41.997Z,6.43
2023-11-20T20:45:10.676Z,5.90
2023-11-20T20:47:38.760Z,7.60
2023-11-20T20:50:07.550Z,9.68
2023-11-20T20:52:35.527Z,7.40
2023-11-20T20:55:05.352Z,6.13
2023-11-20T20:57:34.421Z,5.53
2023-11-20T21:00:04.743Z,5.32
2023-11-20T21:02:32.952Z,7.70
2023-11-20T21:05:01.133Z,15.77
2023-11-20T21:07:29.229Z,6.85
2023-11-20T21:09:57.245Z,10.63
2023-11-20T21:12:28.016Z,5.80
2023-11-20T21:14:56.093Z,11.77
2023-11-20T21:17:24.661Z,6.72
2023-11-20T21:19:52.862Z,4.10
2023-11-20T21:22:20.914Z,7.15
2023-11-20T21:24:48.835Z,5.00
2023-11-20T21:27:17.511Z,6.55
2023-11-20T21:29:47.103Z,5.32
2023-11-20T21:32:15.161Z,4.13
2023-11-20T21:34:50.536Z,4.80
2023-11-20T21:37:23.469Z,3.47
2023-11-20T21:39:51.546Z,4.43
2023-11-20T21:42:19.392Z,4.95
2023-11-20T21:44:49.836Z,8.35
2023-11-20T21:47:17.788Z,6.25
2023-11-20T21:49:46.021Z,4.97
2023-11-20T21:52:14.528Z,4.72
2023-11-20T21:54:43.019Z,7.03
2023-11-20T21:57:11.132Z,7.00
2023-11-20T21:59:39.669Z,10.82
2023-11-20T22:02:09.347Z,13.13
2023-11-20T22:04:37.489Z,15.65
2023-11-20T22:07:06.011Z,9.20
2023-11-20T22:09:34.207Z,7.13
2023-11-20T22:12:02.238Z,8.52
2023-11-20T22:14:30.853Z,7.72
2023-11-20T22:16:59.267Z,11.52
2023-11-20T22:19:28.682Z,9.48
2023-11-20T22:21:58.023Z,9.40
2023-11-20T22:24:27.465Z,6.22
2023-11-20T22:26:55.966Z,7.97
2023-11-20T22:29:25.057Z,6.95
2023-11-20T22:31:53.676Z,7.18
2023-11-20T22:34:22.175Z,6.95
2023-11-20T22:36:51.796Z,6.13
2023-11-20T22:39:19.840Z,6.93
2023-11-20T22:41:48.998Z,8.13
2023-11-20T22:44:17.290Z,6.40
2023-11-20T22:46:45.433Z,6.10
2023-11-20T22:49:14.864Z,4.70
2023-11-20T22:51:44.346Z,4.40
2023-11-20T22:54:13.910Z,6.35
2023-11-20T22:56:42.425Z,10.07
2023-11-20T22:59:11.557Z,9.15
2023-11-20T23:01:41.865Z,6.65
2023-11-20T23:04:10.920Z,6.82
2023-11-20T23:06:40.645Z,6.75
2023-11-20T23:09:08.636Z,7.50
2023-11-20T23:11:38.263Z,7.95
2023-11-20T23:14:07.833Z,4.68
2023-11-20T23:16:36.195Z,6.90
2023-11-20T23:19:04.784Z,11.30
2023-11-20T23:21:32.865Z,9.40
2023-11-20T23:24:01.369Z,7.60
2023-11-20T23:26:29.320Z,8.88
2023-11-20T23:28:58.801Z,8.00
2023-11-20T23:31:27.999Z,8.45
2023-11-20T23:33:56.325Z,5.20
2023-11-20T23:36:24.447Z,7.22
2023-11-20T23:38:52.290Z,5.70
2023-11-20T23:41:20.190Z,9.75
2023-11-20T23:43:48.832Z,8.77
2023-11-20T23:46:18.560Z,9.13
2023-11-20T23:48:46.914Z,14.95
2023-11-20T23:51:14.891Z,5.22
2023-11-20T23:53:43.389Z,8.32
2023-11-20T23:56:11.410Z,7.85
2023-11-20T23:58:39.440Z,8.05
